Time;durP1;ratioP1;P1;durP2;ratioP2;P2;SDS_P1;SDS_P2;PMS_P1;PMS_P2;Temp;Humidity;BMP_temperature;BMP_pressure;BME280_temperature;BME280_humidity;BME280_pressure;Samples;Min_cycle;Max_cycle;Signal;HPM_P1;HPM_P2
2021/06/30 00:01:14;;;;;;;;;;;;;;;;;;5048450;28;20299;-68
2021/06/30 00:03:41;;;;;;;;;;;;;;;;;;5050592;28;20008;-69
2021/06/30 00:06:08;;;;;;;;;;;;;;;;;;5049692;28;19925;-72
2021/06/30 00:08:34;;;;;;;;;;;;;;;;;;5045770;28;20035;-68
2021/06/30 00:11:01;;;;;;;;;;;;;;;;;;5049530;28;19932;-68
2021/06/30 00:13:28;;;;;;;;;;;;;;;;;;5048629;28;19965;-68
2021/06/30 00:15:55;;;;;;;;;;;;;;;;;;5048510;28;20025;-68
2021/06/30 00:18:22;;;;;;;;;;;;;;;;;;5050444;28;19933;-69
2021/06/30 00:20:49;;;;;;;;;;;;;;;;;;5050383;28;20487;-69
2021/06/30 00:23:16;;;;;;;;;;;;;;;;;;5048632;28;19932;-68
2021/06/30 00:25:43;;;;;;;;;;;;;;;;;;5049349;28;19924;-69
2021/06/30 00:28:10;;;;;;;;;;;;;;;;;;5045750;28;19933;-69
2021/06/30 00:30:37;;;;;;;;;;;;;;;;;;5048935;28;20032;-68
2021/06/30 00:33:04;;;;;;;;;;;;;;;;;;5050040;28;19929;-68
2021/06/30 00:35:31;;;;;;;;;;;;;;;;;;5048469;28;19955;-68
2021/06/30 00:37:58;;;;;;;;;;;;;;;;;;5050287;28;20311;-68
2021/06/30 00:40:25;;;;;;;;;;;;;;;;;;5049809;28;20409;-69
2021/06/30 00:42:53;;;;;;;;;;;;;;;;;;5050024;28;19932;-69
2021/06/30 00:45:19;;;;;;;;;;;;;;;;;;5048521;28;20248;-70
2021/06/30 00:47:46;;;;;;;;;;;;;;;;;;5049984;28;19925;-70
2021/06/30 00:50:14;;;;;;;;;;;;;;;;;;5048983;28;20027;-70
2021/06/30 00:52:41;;;;;;;;;;;;;;;;;;5049918;28;19932;-70
2021/06/30 00:55:07;;;;;;;;;;;;;;;;;;5049441;28;20296;-68
2021/06/30 00:57:34;;;;;;;;;;;;;;;;;;5048771;28;19935;-68
2021/06/30 01:00:01;;;;;;;;;;;;;;;;;;5048866;28;19931;-68
2021/06/30 01:02:28;;;;;;;;;;;;;;;;;;5048790;28;19924;-70
2021/06/30 01:04:55;;;;;;;;;;;;;;;;;;5049362;28;19931;-67
2021/06/30 01:07:22;;;;;;;;;;;;;;;;;;5049428;28;20365;-67
2021/06/30 01:09:49;;;;;;;;;;;;;;;;;;5048356;28;19932;-68
2021/06/30 01:12:16;;;;;;;;;;;;;;;;;;5048990;28;19925;-68
2021/06/30 01:14:43;;;;;;;;;;;;;;;;;;5048293;28;19925;-69
2021/06/30 01:17:10;;;;;;;;;;;;;;;;;;5048972;28;20427;-67
2021/06/30 01:19:37;;;;;;;;;;;;;;;;;;5048604;28;19925;-68
2021/06/30 01:22:04;;;;;;;;;;;;;;;;;;5049201;28;19925;-69
2021/06/30 01:24:31;;;;;;;;;;;;;;;;;;5049839;28;20015;-69
2021/06/30 01:26:58;;;;;;;;;;;;;;;;;;5049150;28;19932;-68
2021/06/30 01:29:25;;;;;;;;;;;;;;;;;;5048317;28;20277;-68
2021/06/30 01:31:52;;;;;;;;;;;;;;;;;;5052704;28;19929;-69
2021/06/30 01:34:19;;;;;;;;;;;;;;;;;;5053489;28;20024;-67
2021/06/30 01:36:46;;;;;;;;;;;;;;;;;;5052284;28;19925;-67
2021/06/30 01:39:13;;;;;;;;;;;;;;;;;;5053076;28;19932;-70
2021/06/30 01:41:40;;;;;;;;;;;;;;;;;;5051113;28;19925;-69
2021/06/30 01:44:07;;;;;;;;;;;;;;;;;;5052941;28;20027;-68
2021/06/30 01:46:34;;;;;;;;;;;;;;;;;;5052411;28;20080;-69
2021/06/30 01:49:01;;;;;;;;;;;;;;;;;;5051798;28;19971;-70
2021/06/30 01:51:28;;;;;;;;;;;;;;;;;;5052120;28;20015;-69
2021/06/30 01:53:54;;;;;;;;;;;;;;;;;;5053201;28;20450;-69
2021/06/30 01:56:21;;;;;;;;;;;;;;;;;;5051697;28;20663;-68
2021/06/30 01:58:48;;;;;;;;;;;;;;;;;;5052712;28;19924;-67
2021/06/30 02:01:15;;;;;;;;;;;;;;;;;;5051586;28;19928;-69
2021/06/30 02:03:42;;;;;;;;;;;;;;;;;;5052031;28;20415;-71
2021/06/30 02:06:09;;;;;;;;;;;;;;;;;;5052603;28;20385;-69
2021/06/30 02:08:36;;;;;;;;;;;;;;;;;;5052668;28;20403;-70
2021/06/30 02:11:03;;;;;;;;;;;;;;;;;;5051855;28;19935;-69
2021/06/30 02:13:30;;;;;;;;;;;;;;;;;;5052043;28;19925;-69
2021/06/30 02:15:57;;;;;;;;;;;;;;;;;;5051923;28;19931;-67
2021/06/30 02:18:24;;;;;;;;;;;;;;;;;;5049849;28;19925;-68
2021/06/30 02:20:51;;;;;;;;;;;;;;;;;;5051475;28;20357;-68
2021/06/30 02:23:18;;;;;;;;;;;;;;;;;;5052696;28;19931;-67
2021/06/30 02:25:45;;;;;;;;;;;;;;;;;;5050522;28;20020;-69
2021/06/30 02:28:12;;;;;;;;;;;;;;;;;;5050658;28;19924;-68
2021/06/30 02:30:39;;;;;;;;;;;;;;;;;;5051472;28;19925;-69
2021/06/30 02:33:05;;;;;;;;;;;;;;;;;;5051613;28;19983;-68
2021/06/30 02:35:33;;;;;;;;;;;;;;;;;;5050793;28;19931;-69
2021/06/30 02:38:00;;;;;;;;;;;;;;;;;;5051371;28;20011;-68
2021/06/30 02:40:27;;;;;;;;;;;;;;;;;;5051418;28;20023;-68
2021/06/30 02:42:53;;;;;;;;;;;;;;;;;;5050854;28;19946;-67
2021/06/30 02:45:20;;;;;;;;;;;;;;;;;;5052242;28;19925;-69
2021/06/30 02:47:47;;;;;;;;;;;;;;;;;;5051191;28;19932;-70
2021/06/30 02:50:15;;;;;;;;;;;;;;;;;;5052721;28;19931;-69
2021/06/30 02:52:42;;;;;;;;;;;;;;;;;;5060095;28;19925;-69
2021/06/30 02:55:09;;;;;;;;;;;;;;;;;;5051654;28;20264;-70
2021/06/30 02:57:36;;;;;;;;;;;;;;;;;;5052007;28;20396;-69
2021/06/30 03:00:03;;;;;;;;;;;;;;;;;;5051527;28;20381;-68
2021/06/30 03:02:30;;;;;;;;;;;;;;;;;;5046339;28;19924;-68
2021/06/30 03:04:57;;;;;;;;;;;;;;;;;;5051329;28;19933;-69
2021/06/30 03:07:24;;;;;;;;;;;;;;;;;;5048566;28;20023;-70
2021/06/30 03:09:51;;;;;;;;;;;;;;;;;;5049635;28;19925;-69
2021/06/30 03:12:18;;;;;;;;;;;;;;;;;;5051526;28;20415;-70
2021/06/30 03:14:45;;;;;;;;;;;;;;;;;;5050678;28;19933;-69
2021/06/30 03:17:12;;;;;;;;;;;;;;;;;;5050953;28;19925;-70
2021/06/30 03:19:39;;;;;;;;;;;;;;;;;;5051271;28;19932;-70
2021/06/30 03:22:05;;;;;;;;;;;;;;;;;;5050659;28;20023;-70
2021/06/30 03:24:32;;;;;;;;;;;;;;;;;;5051795;28;19925;-68
2021/06/30 03:26:59;;;;;;;;;;;;;;;;;;5051253;28;20325;-68
2021/06/30 03:29:26;;;;;;;;;;;;;;;;;;5051923;28;19925;-70
2021/06/30 03:31:54;;;;;;;;;;;;;;;;;;5052499;28;20023;-70
2021/06/30 03:34:21;;;;;;;;;;;;;;;;;;5069877;22;20307;-65
2021/06/30 03:36:48;;;;;;;;;;;;;;;;;;5057575;28;19928;-64
2021/06/30 03:39:15;;;;;;;;;;;;;;;;;;5065654;28;20011;-64
2021/06/30 03:41:42;;;;;;;;;;;;;;;;;;5052403;28;19931;-65
2021/06/30 03:44:09;;;;;;;;;;;;;;;;;;5050854;28;19929;-64
2021/06/30 03:46:36;;;;;;;;;;;;;;;;;;5058542;28;19925;-65
2021/06/30 03:49:03;;;;;;;;;;;;;;;;;;5055401;28;19925;-64
2021/06/30 03:51:30;;;;;;;;;;;;;;;;;;5051780;28;19934;-65
2021/06/30 03:53:57;;;;;;;;;;;;;;;;;;5056082;28;19968;-65
2021/06/30 03:56:25;;;;;;;;;;;;;;;;;;5054351;28;19936;-64
2021/06/30 03:58:52;;;;;;;;;;;;;;;;;;5049409;28;20090;-65
2021/06/30 04:01:20;;;;;;;;;;;;;;;;;;5052432;28;20388;-65
2021/06/30 04:03:49;;;;;;;;;;;;;;;;;;5052707;28;20347;-65
2021/06/30 04:06:16;;;;;;;;;;;;;;;;;;5051784;28;19925;-65
2021/06/30 04:08:43;;;;;;;;;;;;;;;;;;5049870;28;19935;-65
2021/06/30 04:11:10;;;;;;;;;;;;;;;;;;5057690;28;19932;-65
2021/06/30 04:13:37;;;;;;;;;;;;;;;;;;5063114;28;19925;-66
2021/06/30 04:16:04;;;;;;;;;;;;;;;;;;5055378;28;19925;-65
2021/06/30 04:18:31;;;;;;;;;;;;;;;;;;5049670;28;19931;-69
2021/06/30 04:20:58;;;;;;;;;;;;;;;;;;5053339;28;19929;-65
2021/06/30 04:23:26;;;;;;;;;;;15.30;99.90;;;;;;5048278;28;19943;-65
2021/06/30 04:25:52;;;;;;;;;;;15.40;99.90;;;;;;5050920;28;20007;-66
2021/06/30 04:28:19;;;;;;;;;;;15.40;99.90;;;;;;5049745;28;19925;-65
2021/06/30 04:30:46;;;;;;;;;;;15.40;99.90;;;;;;5050460;28;20269;-65
2021/06/30 04:33:12;;;;;;;;;;;15.40;99.90;;;;;;5053176;28;20341;-65
2021/06/30 04:35:39;;;;;;;;;;;15.50;99.90;;;;;;5060256;28;20003;-66
2021/06/30 04:38:06;;;;;;;;;;;15.50;99.90;;;;;;5052319;28;19924;-64
2021/06/30 04:40:34;;;;;;;;;;;15.50;99.90;;;;;;5049537;28;19931;-65
2021/06/30 04:43:01;;;;;;;;;;;15.50;99.90;;;;;;5055837;28;19925;-65
2021/06/30 04:45:27;;;;;;;;;;;15.60;99.90;;;;;;5050340;28;20027;-65
2021/06/30 04:47:54;;;;;;;;;;;15.60;99.90;;;;;;5052266;28;19925;-67
2021/06/30 04:50:22;;;;;;;;;;;15.60;99.90;;;;;;5054266;28;20031;-65
2021/06/30 04:52:48;;;;;;;;;;;15.70;99.90;;;;;;5059098;28;19931;-65
2021/06/30 04:55:15;;;;;;;;;;;;;;;;;;5059922;28;19925;-65
2021/06/30 04:57:42;;;;;;;;;;;;;;;;;;5051662;28;19924;-65
2021/06/30 05:00:11;;;;;;;;;;;15.70;99.90;;;;;;5055557;28;20273;-65
2021/06/30 05:02:38;;;;;;;;;;;15.80;99.90;;;;;;5052232;28;19929;-66
2021/06/30 05:05:05;;;;;;;;;;;15.80;99.90;;;;;;5056352;28;20012;-63
2021/06/30 05:07:32;;;;;;;;;;;;;;;;;;5049567;28;20024;-65
2021/06/30 05:09:59;;;;;;;;;;;15.90;99.90;;;;;;5054973;28;19925;-65
2021/06/30 05:12:26;;;;;;;;;;;;;;;;;;5050761;28;19925;-64
2021/06/30 05:14:52;;;;;;;;;;;16.10;99.90;;;;;;5051330;28;19991;-64
2021/06/30 05:17:19;;;;;;;;;;;;;;;;;;5053704;28;20388;-64
2021/06/30 05:19:47;;;;;;;;;;;16.30;99.90;;;;;;5055172;28;19972;-65
2021/06/30 05:22:14;;;;;;;;;;;16.30;99.90;;;;;;5058652;28;20518;-63
2021/06/30 05:24:41;;;;;;;;;;;;;;;;;;5060138;28;19925;-63
2021/06/30 05:27:07;;;;;;;;;;;16.60;99.90;;;;;;5055508;28;20019;-65
2021/06/30 05:29:34;;;;;;;;;;;16.60;99.90;;;;;;5061850;28;19925;-65
2021/06/30 05:32:00;;;;;;;;;;;16.60;99.90;;;;;;5055629;28;20361;-64
2021/06/30 05:34:27;;;;;;;;;;;16.60;99.90;;;;;;5052121;28;19933;-64
2021/06/30 05:36:54;;;;;;;;;;;;;;;;;;5054208;28;19979;-63
2021/06/30 05:39:21;;;;;;;;;;;;;;;;;;5055097;28;19929;-64
2021/06/30 05:41:48;;;;;;;;;;;;;;;;;;5055465;28;19928;-64
2021/06/30 05:44:15;;;;;;;;;;;;;;;;;;5054265;28;20292;-65
2021/06/30 05:46:44;;;;;;;;;;;16.90;99.90;;;;;;5061220;28;20395;-65
2021/06/30 05:49:11;;;;;;;;;;;16.90;99.90;;;;;;5055090;28;19924;-62
2021/06/30 05:51:39;;;;;;;;;;;17.00;99.90;;;;;;5052458;28;19933;-62
2021/06/30 05:54:06;;;;;;;;;;;;;;;;;;5058515;28;19930;-59
2021/06/30 05:56:33;;;;;;;;;;;;;;;;;;5064163;28;19925;-63
2021/06/30 05:58:59;;;;;;;;;;;17.10;99.90;;;;;;5057991;28;20019;-62
2021/06/30 06:01:26;;;;;;;;;;;17.10;99.90;;;;;;5051325;28;20561;-61
2021/06/30 06:03:54;;;;;;;;;;;17.20;99.90;;;;;;5057048;28;20568;-61
2021/06/30 06:06:21;;;;;;;;;;;17.30;99.90;;;;;;5056544;28;20368;-59
2021/06/30 06:08:47;;;;;;;;;;;17.30;99.90;;;;;;5054286;28;19929;-63
2021/06/30 06:11:14;;;;;;;;;;;17.40;99.90;;;;;;5052892;28;19931;-62
2021/06/30 06:13:41;;;;;;;;;;;17.30;99.90;;;;;;5049108;28;19994;-62
2021/06/30 06:16:08;;;;;;;;;;;16.80;99.90;;;;;;5053944;28;20339;-62
2021/06/30 06:18:35;;;;;;;;;;;;;;;;;;5051942;28;19925;-57
2021/06/30 06:21:02;;;;;;;;;;;;;;;;;;5050049;28;19924;-63
2021/06/30 06:23:29;;;;;;;;;;;;;;;;;;5057865;28;20402;-64
2021/06/30 06:25:56;;;;;;;;;;;;;;;;;;5055354;28;19925;-61
2021/06/30 06:28:25;;;;;;;;;;;;;;;;;;5051547;28;20404;-62
2021/06/30 06:30:51;;;;;;;;;;;;;;;;;;5049883;28;19932;-62
2021/06/30 06:33:19;;;;;;;;;;;;;;;;;;5048267;28;19929;-61
2021/06/30 06:35:47;;;;;;;;;;;;;;;;;;5051557;28;20396;-64
2021/06/30 06:38:14;;;;;;;;;;;;;;;;;;5055073;28;19931;-62
2021/06/30 06:40:41;;;;;;;;;;;;;;;;;;5052280;28;20325;-63
2021/06/30 06:43:08;;;;;;;;;;;;;;;;;;5051625;28;19936;-63
2021/06/30 06:45:35;;;;;;;;;;;;;;;;;;5062677;28;20343;-62
2021/06/30 06:48:02;;;;;;;;;;;;;;;;;;5052410;28;19925;-61
2021/06/30 06:50:28;;;;;;;;;;;;;;;;;;5060193;28;19924;-61
2021/06/30 06:52:55;;;;;;;;;;;;;;;;;;5066595;28;19925;-63
2021/06/30 06:55:23;;;;;;;;;;;;;;;;;;5054444;28;19924;-63
2021/06/30 06:57:50;;;;;;;;;;;;;;;;;;5055499;28;19925;-61
2021/06/30 07:00:17;;;;;;;;;;;;;;;;;;5054353;28;19932;-62
2021/06/30 07:02:44;;;;;;;;;;;;;;;;;;5054020;28;20427;-62
2021/06/30 07:05:11;;;;;;;;;;;;;;;;;;5048800;28;19925;-62
2021/06/30 07:07:37;;;;;;;;;;;;;;;;;;5050634;28;19928;-61
2021/06/30 07:10:04;;;;;;;;;;;;;;;;;;5051551;28;19924;-61
2021/06/30 07:12:31;;;;;;;;;;;;;;;;;;5051170;28;20567;-64
2021/06/30 07:15:01;;;;;;;;;;;;;;;;;;5046384;28;20308;-61
2021/06/30 07:17:27;;;;;;;;;;;;;;;;;;5043359;28;20464;-61
2021/06/30 07:19:54;;;;;;;;;;;;;;;;;;5052373;28;19929;-61
2021/06/30 07:22:21;;;;;;;;;;;;;;;;;;5044840;28;19925;-62
2021/06/30 07:24:48;;;;;;;;;;;;;;;;;;5050854;28;20019;-61
2021/06/30 07:27:15;;;;;;;;;;;;;;;;;;5038202;28;19933;-60
2021/06/30 07:29:42;;;;;;;;;;;;;;;;;;5049121;28;19935;-59
2021/06/30 07:32:09;;;;;;;;;;;;;;;;;;5052464;28;20387;-62
2021/06/30 07:34:36;;;;;;;;;;;;;;;;;;5046749;28;20418;-62
2021/06/30 07:37:03;;;;;;;;;;;;;;;;;;5044988;28;20440;-63
2021/06/30 07:39:30;;;;;;;;;;;;;;;;;;5050122;28;19935;-63
2021/06/30 07:41:57;;;;;;;;;;;;;;;;;;5054883;28;19932;-63
2021/06/30 07:44:24;;;;;;;;;;;;;;;;;;5046923;28;19925;-62
2021/06/30 07:46:51;;;;;;;;;;;;;;;;;;5054465;28;19925;-66
2021/06/30 07:49:18;;;;;;;;;;;;;;;;;;5054682;28;20392;-63
2021/06/30 07:51:45;;;;;;;;;;;;;;;;;;5050496;28;19943;-63
2021/06/30 07:54:12;;;;;;;;;;;;;;;;;;5049754;28;19932;-63
2021/06/30 07:56:39;;;;;;;;;;;;;;;;;;5047650;28;20312;-63
2021/06/30 07:59:06;;;;;;;;;;;;;;;;;;5050339;28;19925;-63
2021/06/30 08:01:33;;;;;;;;;;;;;;;;;;5054078;28;19925;-64
2021/06/30 08:03:59;;;;;;;;;;;;;;;;;;5051813;28;19931;-64
2021/06/30 08:06:26;;;;;;;;;;;;;;;;;;5051766;28;19928;-64
2021/06/30 08:08:53;;;;;;;;;;;;;;;;;;5052608;28;19964;-64
2021/06/30 08:14:11;;;;;;;;;;;;;;;;;;5047579;28;19928;-64
2021/06/30 08:16:38;;;;;;;;;;;;;;;;;;5051008;28;20174;-65
2021/06/30 08:19:05;;;;;;;;;;;;;;;;;;5054706;28;20292;-64
2021/06/30 08:21:32;;;;;;;;;;;;;;;;;;5049372;28;20347;-65
2021/06/30 08:23:59;;;;;;;;;;;;;;;;;;5043617;28;19929;-63
2021/06/30 08:26:26;;;;;;;;;;;;;;;;;;5051772;28;20023;-64
2021/06/30 08:28:56;;;;;;;;;;;;;;;;;;5047621;28;21155;-61
2021/06/30 08:31:23;;;;;;;;;;;;;;;;;;5048431;28;19955;-63
2021/06/30 08:33:50;;;;;;;;;;;;;;;;;;5049842;28;19925;-63
2021/06/30 08:36:17;;;;;;;;;;;;;;;;;;5042348;28;19925;-63
2021/06/30 08:38:44;;;;;;;;;;;;;;;;;;5047560;28;19929;-64
2021/06/30 08:41:11;;;;;;;;;;;;;;;;;;5047452;28;21423;-65
2021/06/30 08:43:38;;;;;;;;;;;;;;;;;;5048018;28;19936;-65
2021/06/30 08:46:05;;;;;;;;;;;;;;;;;;5050681;28;20123;-63
2021/06/30 08:48:32;;;;;;;;;;;;;;;;;;5047912;28;19926;-61
2021/06/30 08:50:59;;;;;;;;;;;;;;;;;;5049284;28;19991;-65
2021/06/30 08:53:26;;;;;;;;;;;;;;;;;;5050614;28;19940;-64
2021/06/30 08:55:53;;;;;;;;;;;;;;;;;;5047511;28;20347;-64
2021/06/30 08:58:20;;;;;;;;;;;;;;;;;;5049908;28;19943;-64
2021/06/30 09:00:47;;;;;;;;;;;;;;;;;;5049642;28;19931;-65
2021/06/30 09:03:16;;;;;;;;;;;;;;;;;;5052233;28;20024;-63
2021/06/30 09:08:27;;;;;;;;;;;;;;;;;;5048275;28;19920;-65
2021/06/30 09:10:54;;;;;;;;;;;;;;;;;;5048389;28;19932;-65
2021/06/30 09:13:21;;;;;;;;;;;;;;;;;;5049790;28;19924;-65
2021/06/30 09:15:48;;;;;;;;;;;;;;;;;;5049141;28;19972;-62
2021/06/30 09:18:15;;;;;;;;;;;;;;;;;;5048733;28;19924;-65
2021/06/30 09:20:42;;;;;;;;;;;;;;;;;;5048278;28;19925;-65
2021/06/30 09:23:09;;;;;;;;;;;;;;;;;;5045278;28;19929;-66
2021/06/30 09:25:36;;;;;;;;;;;;;;;;;;5049359;28;19928;-64
2021/06/30 09:28:03;;;;;;;;;;;;;;;;;;5052357;28;19931;-65
2021/06/30 09:30:30;;;;;;;;;;;;;;;;;;5045711;28;19925;-65
2021/06/30 09:32:57;;;;;;;;;;;;;;;;;;5043959;28;19925;-64
2021/06/30 09:35:24;;;;;;;;;;;;;;;;;;5066306;22;19931;-66
2021/06/30 09:37:51;;;;;;;;;;;;;;;;;;5065762;28;19930;-66
2021/06/30 09:40:18;;;;;;;;;;;;;;;;;;5064656;28;19928;-66
2021/06/30 09:42:45;;;;;;;;;;;;;;;;;;5066434;28;20007;-65
2021/06/30 09:45:12;;;;;;;;;;;;;;;;;;5059244;28;20344;-66
2021/06/30 09:47:39;;;;;;;;;;;;;;;;;;5062924;28;19954;-66
2021/06/30 09:50:06;;;;;;;;;;;;;;;;;;5061343;28;19932;-65
2021/06/30 09:52:33;;;;;;;;;;;;;;;;;;5065204;28;19924;-66
2021/06/30 09:55:00;;;;;;;;;;;;;;;;;;5067611;28;20402;-64
2021/06/30 09:57:27;;;;;;;;;;;;;;;;;;5064223;28;19929;-64
2021/06/30 09:59:54;;;;;;;;;;;;;;;;;;5064960;28;20027;-64
2021/06/30 10:02:22;;;;;;;;;;;;;;;;;;5066658;28;19932;-64
2021/06/30 10:04:49;;;;;;;;;;;;;;;;;;5069105;28;19930;-64
2021/06/30 10:07:16;;;;;;;;;;;;;;;;;;5060967;28;20157;-65
2021/06/30 10:09:43;;;;;;;;;;;;;;;;;;5065537;28;19932;-65
2021/06/30 10:12:10;;;;;;;;;;;;;;;;;;5065714;28;19933;-65
2021/06/30 10:14:37;;;;;;;;;;;;;;;;;;5064517;28;19925;-65
2021/06/30 10:17:04;;;;;;;;;;;;;;;;;;5066973;28;19925;-64
2021/06/30 10:19:31;;;;;;;;;;;;;;;;;;5066992;28;19931;-64
2021/06/30 10:21:58;;;;;;;;;;;;;;;;;;5065446;28;19932;-64
2021/06/30 10:24:25;;;;;;;;;;;;;;;;;;5066517;28;20346;-65
2021/06/30 10:26:52;;;;;;;;;;;;;;;;;;5067165;28;19924;-64
2021/06/30 10:29:19;;;;;;;;;;;;;;;;;;5062922;28;19932;-66
2021/06/30 10:31:48;;;;;;;;;;;;;;;;;;5067165;28;19931;-64
2021/06/30 10:34:15;;;;;;;;;;;;;;;;;;5065278;28;19931;-65
2021/06/30 10:36:42;;;;;;;;;;;;;;;;;;5062535;28;19971;-64
2021/06/30 10:39:09;;;;;;;;;;;;;;;;;;5065615;28;20292;-64
2021/06/30 10:41:36;;;;;;;;;;;;;;;;;;5066142;28;20156;-66
2021/06/30 10:44:03;;;;;;;;;;;;;;;;;;5067282;28;19931;-66
2021/06/30 10:46:30;;;;;;;;;;;;;;;;;;5064849;28;19924;-66
2021/06/30 10:48:57;;;;;;;;;;;;;;;;;;5064288;28;19933;-65
2021/06/30 10:51:24;;;;;;;;;;;;;;;;;;5066134;28;19928;-66
2021/06/30 10:53:51;;;;;;;;;;;;;;;;;;5065381;28;20294;-65
2021/06/30 10:56:18;;;;;;;;;;;;;;;;;;5064749;28;20023;-65
2021/06/30 10:58:45;;;;;;;;;;;;;;;;;;5067378;28;20285;-65
2021/06/30 11:01:18;;;;;;;;;;;;;;;;;;5064359;28;19925;-65
2021/06/30 11:03:45;;;;;;;;;;;;;;;;;;5063430;28;20014;-65
2021/06/30 11:06:13;;;;;;;;;;;;;;;;;;5063530;28;19929;-64
2021/06/30 11:08:41;;;;;;;;;;;;;;;;;;5068591;28;19932;-64
2021/06/30 11:11:08;;;;;;;;;;;;;;;;;;5064576;28;19925;-65
2021/06/30 11:13:35;;;;;;;;;;;;;;;;;;5064971;28;20601;-65
2021/06/30 11:16:02;;;;;;;;;;;;;;;;;;5065288;28;20296;-64
2021/06/30 11:18:29;;;;;;;;;;;;;;;;;;5064335;28;19928;-64
2021/06/30 11:21:00;;;;;;;;;;;;;;;;;;5063975;28;19986;-64
2021/06/30 11:23:27;;;;;;;;;;;;;;;;;;5063563;28;19929;-66
2021/06/30 11:25:54;;;;;;;;;;;;;;;;;;5062761;28;19931;-64
2021/06/30 11:28:21;;;;;;;;;;;;;;;;;;5067270;28;20285;-66
2021/06/30 11:30:48;;;;;;;;;;;;;;;;;;5063582;28;20032;-65
2021/06/30 11:33:15;;;;;;;;;;;;;;;;;;5062294;28;20305;-65
2021/06/30 11:35:45;;;;;;;;;;;;;;;;;;5062407;28;19959;-65
2021/06/30 11:38:13;;;;;;;;;;;;;;;;;;5059744;28;19924;-62
2021/06/30 11:40:42;;;;;;;;;;;;;;;;;;5061986;28;19924;-66
2021/06/30 11:43:09;;;;;;;;;;;;;;;;;;5065332;28;19936;-65
2021/06/30 11:45:36;;;;;;;;;;;;;;;;;;5061111;28;19932;-63
2021/06/30 11:48:02;;;;;;;;;;;;;;;;;;5064018;28;20024;-64
2021/06/30 11:50:30;;;;;;;;;;;;;;;;;;5063164;28;20307;-64
2021/06/30 11:52:57;;;;;;;;;;;;;;;;;;5072418;28;20300;-64
2021/06/30 11:55:24;;;;;;;;;;;;;;;;;;5065941;28;20380;-65
2021/06/30 11:57:51;;;;;;;;;;;;;;;;;;5069175;28;20427;-64
2021/06/30 12:00:18;;;;;;;;;;;;;;;;;;5061382;28;19929;-64
2021/06/30 12:02:45;;;;;;;;;;;;;;;;;;5070382;28;19925;-65
2021/06/30 12:05:12;;;;;;;;;;;;;;;;;;5068810;28;20018;-64
2021/06/30 12:07:39;;;;;;;;;;;;;;;;;;5068362;28;19932;-63
2021/06/30 12:10:07;;;;;;;;;;;;;;;;;;5070737;28;20024;-64
2021/06/30 12:12:34;;;;;;;;;;;;;;;;;;5072117;28;19925;-67
2021/06/30 12:15:01;;;;;;;;;;;;;;;;;;5068429;28;19931;-65
2021/06/30 12:17:28;;;;;;;;;;;;;;;;;;5071693;28;19932;-65
2021/06/30 12:19:55;;;;;;;;;;;;;;;;;;5070971;28;20299;-66
2021/06/30 12:22:22;;;;;;;;;;;;;;;;;;5070875;28;19925;-65
2021/06/30 12:24:49;;;;;;;;;;;;;;;;;;5070100;28;19929;-66
2021/06/30 12:27:16;;;;;;;;;;;;;;;;;;5061405;28;20199;-65
2021/06/30 12:29:43;;;;;;;;;;;;;;;;;;5052082;28;19951;-66
2021/06/30 12:32:10;;;;;;;;;;;;;;;;;;5065483;28;19925;-66
2021/06/30 12:34:37;;;;;;;;;;;;;;;;;;5068661;28;19935;-65
2021/06/30 12:37:04;;;;;;;;;;;;;;;;;;5066725;28;20007;-65
2021/06/30 12:39:31;;;;;;;;;;;;;;;;;;5067680;28;19925;-66
2021/06/30 12:41:58;;;;;;;;;;;;;;;;;;5065956;28;20392;-65
2021/06/30 12:44:25;;;;;;;;;;;;;;;;;;5070954;28;19936;-65
2021/06/30 12:46:52;;;;;;;;;;;;;;;;;;5070080;28;20454;-64
2021/06/30 12:49:19;;;;;;;;;;;;;;;;;;5064594;28;19924;-65
2021/06/30 12:51:46;;;;;;;;;;;;;;;;;;5069548;28;19931;-64
2021/06/30 12:54:13;;;;;;;;;;;;;;;;;;5071182;28;19931;-65
2021/06/30 12:56:44;;;;;;;;;;;;;;;;;;5071598;28;19924;-65
2021/06/30 12:59:11;;;;;;;;;;;;;;;;;;5071419;28;20007;-65
2021/06/30 13:01:39;;;;;;;;;;;;;;;;;;5068463;28;19951;-65
2021/06/30 13:04:07;;;;;;;;;;;;;;;;;;5070520;28;20020;-65
2021/06/30 13:06:34;;;;;;;;;;;;;;;;;;5068298;28;19928;-65
2021/06/30 13:09:01;;;;;;;;;;;;;;;;;;5064727;28;19938;-65
2021/06/30 13:11:28;;;;;;;;;;;;;;;;;;5070569;28;19928;-65
2021/06/30 13:13:55;;;;;;;;;;;;;;;;;;5062905;28;19924;-64
2021/06/30 13:16:22;;;;;;;;;;;;;;;;;;5069756;28;20015;-65
2021/06/30 13:18:51;;;;;;;;;;;;;;;;;;5071170;28;19961;-65
2021/06/30 13:21:18;;;;;;;;;;;;;;;;;;5070697;28;19936;-64
2021/06/30 13:23:51;;;;;;;;;;;;;;;;;;5070533;28;19924;-64
2021/06/30 13:26:48;;;;;;;;;;;;;;;;;;5073719;28;19933;-65
2021/06/30 13:34:50;;;;;;;;;;;;;;;;;;5072733;28;19966;-65
2021/06/30 13:37:17;;;;;;;;;;;;;;;;;;5074266;28;19930;-65
2021/06/30 13:39:44;;;;;;;;;;;;;;;;;;5072025;28;19929;-65
2021/06/30 13:42:11;;;;;;;;;;;;;;;;;;5075378;28;20418;-64
2021/06/30 13:44:38;;;;;;;;;;;;;;;;;;5072615;28;20015;-64
2021/06/30 13:47:05;;;;;;;;;;;;;;;;;;5074738;28;19928;-65
2021/06/30 13:49:32;;;;;;;;;;;;;;;;;;5073797;28;19931;-65
2021/06/30 13:51:59;;;;;;;;;;;;;;;;;;5073849;28;19933;-65
2021/06/30 13:54:26;;;;;;;;;;;;;;;;;;5074417;28;19937;-63
2021/06/30 13:56:53;;;;;;;;;;;;;;;;;;5074248;28;19931;-65
2021/06/30 13:59:20;;;;;;;;;;;;;;;;;;5073244;28;20376;-65
2021/06/30 14:01:47;;;;;;;;;;;;;;;;;;5072284;28;19924;-64
2021/06/30 14:04:14;;;;;;;;;;;;;;;;;;5073769;28;19931;-65
2021/06/30 14:06:42;;;;;;;;;;;;;;;;;;5072730;28;19925;-64
2021/06/30 14:09:09;;;;;;;;;;;;;;;;;;5068966;28;19937;-65
2021/06/30 14:11:36;;;;;;;;;;;;;;;;;;5073598;28;20381;-65
2021/06/30 14:14:03;;;;;;;;;;;;;;;;;;5074440;28;19931;-65
2021/06/30 14:16:30;;;;;;;;;;;;;;;;;;5074205;28;19925;-65
2021/06/30 14:18:57;;;;;;;;;;;;;;;;;;5074152;28;19925;-65
2021/06/30 14:21:24;;;;;;;;;;;;;;;;;;5074298;28;20472;-66
2021/06/30 14:23:51;;;;;;;;;;;;;;;;;;5072820;28;20031;-65
2021/06/30 14:26:18;;;;;;;;;;;;;;;;;;5069266;28;19928;-65
2021/06/30 14:28:45;;;;;;;;;;;;;;;;;;5072610;28;19932;-65
2021/06/30 14:31:12;;;;;;;;;;;;;;;;;;5067288;28;19924;-65
2021/06/30 14:33:39;;;;;;;;;;;;;;;;;;5071501;28;19924;-64
2021/06/30 14:36:06;;;;;;;;;;;;;;;;;;5071844;28;19928;-65
2021/06/30 14:38:33;;;;;;;;;;;;;;;;;;5071216;28;19924;-65
2021/06/30 14:41:00;;;;;;;;;;;;;;;;;;5071401;28;20291;-65
2021/06/30 14:43:28;;;;;;;;;;;;;;;;;;5073897;28;20019;-65
2021/06/30 14:45:59;;;;;;;;;;;;;;;;;;5071970;28;20396;-65
2021/06/30 14:48:26;;;;;;;;;;;;;;;;;;5072470;28;20388;-64
2021/06/30 14:50:56;;;;;;;;;;;;;;;;;;5071396;28;19931;-66
2021/06/30 14:53:23;;;;;;;;;;;;;;;;;;5073958;28;19924;-65
2021/06/30 14:55:53;;;;;;;;;;;;;;;;;;5072324;28;19924;-66
2021/06/30 14:58:21;;;;;;;;;;;;;;;;;;5068589;28;19924;-65
2021/06/30 15:00:48;;;;;;;;;;;;;;;;;;5065344;28;20343;-64
2021/06/30 15:03:15;;;;;;;;;;;;;;;;;;5068754;28;20152;-65
2021/06/30 15:05:42;;;;;;;;;;;;;;;;;;5066222;28;19936;-65
2021/06/30 15:08:09;;;;;;;;;;;;;;;;;;5060822;28;20009;-66
2021/06/30 15:10:36;;;;;;;;;;;;;;;;;;5063576;28;19943;-65
2021/06/30 15:13:03;;;;;;;;;;;;;;;;;;5065423;28;20360;-65
2021/06/30 15:15:30;;;;;;;;;;;;;;;;;;5066292;28;19924;-65
2021/06/30 15:17:57;;;;;;;;;;;;;;;;;;5065812;28;20406;-65
2021/06/30 15:20:24;;;;;;;;;;;;;;;;;;5063574;28;19931;-65
2021/06/30 15:22:52;;;;;;;;;;;;;;;;;;5067589;28;19924;-65
2021/06/30 15:25:19;;;;;;;;;;;;;;;;;;5065976;28;19937;-65
2021/06/30 15:27:46;;;;;;;;;;;;;;;;;;5065235;28;19925;-65
2021/06/30 15:30:12;;;;;;;;;;;;;;;;;;5065284;28;19930;-64
2021/06/30 15:32:40;;;;;;;;;;;;;;;;;;5066471;28;19931;-65
2021/06/30 15:35:07;;;;;;;;;;;;;;;;;;5063600;28;19932;-65
2021/06/30 15:37:33;;;;;;;;;;;;;;;;;;5068498;28;19968;-65
2021/06/30 15:40:02;;;;;;;;;;;;;;;;;;5063871;28;19924;-65
2021/06/30 15:42:29;;;;;;;;;;;;;;;;;;5065260;28;19967;-64
2021/06/30 15:44:56;;;;;;;;;;;;;;;;;;5065234;28;21153;-65
2021/06/30 15:47:23;;;;;;;;;;;;;;;;;;5063616;28;20357;-66
2021/06/30 15:49:50;;;;;;;;;;;;;;;;;;5062861;28;19932;-65
2021/06/30 15:52:17;;;;;;;;;;;;;;;;;;5064897;28;19928;-65
2021/06/30 15:54:44;;;;;;;;;;;;;;;;;;5064436;28;19924;-65
2021/06/30 15:57:11;;;;;;;;;;;;;;;;;;5062302;28;20150;-65
2021/06/30 15:59:38;;;;;;;;;;;;;;;;;;5063269;28;19975;-64
2021/06/30 16:02:06;;;;;;;;;;;;;;;;;;5063967;28;20028;-64
2021/06/30 16:04:33;;;;;;;;;;;;;;;;;;5064580;28;19977;-65
2021/06/30 16:07:00;;;;;;;;;;;;;;;;;;5064672;28;20018;-64
2021/06/30 16:09:27;;;;;;;;;;;;;;;;;;5063686;28;19930;-64
2021/06/30 16:11:54;;;;;;;;;;;;;;;;;;5065310;28;19930;-65
2021/06/30 16:14:22;;;;;;;;;;;;;;;;;;5065782;28;19929;-66
2021/06/30 16:16:49;;;;;;;;;;;;;;;;;;5064927;28;19928;-65
2021/06/30 16:19:16;;;;;;;;;;;;;;;;;;5065936;28;20014;-64
2021/06/30 16:21:43;;;;;;;;;;;;;;;;;;5063842;28;19940;-64
2021/06/30 16:24:11;;;;;;;;;;;;;;;;;;5064343;28;19990;-64
2021/06/30 16:26:38;;;;;;;;;;;;;;;;;;5061841;28;19964;-66
2021/06/30 16:29:05;;;;;;;;;;;;;;;;;;5064051;28;19948;-64
2021/06/30 16:31:32;;;;;;;;;;;;;;;;;;5064292;28;20389;-65
2021/06/30 16:33:59;;;;;;;;;;;;;;;;;;5065670;28;19933;-64
2021/06/30 16:36:26;;;;;;;;;;;;;;;;;;5061284;28;20312;-65
2021/06/30 16:38:53;;;;;;;;;;;;;;;;;;5064287;28;20081;-65
2021/06/30 16:41:20;;;;;;;;;;;;;;;;;;5065670;28;19928;-65